createdAt,value
2023-01-01T00:00:14.161Z,0.00
2023-01-01T00:01:14.111Z,0.00
2023-01-01T00:02:14.119Z,0.00
2023-01-01T00:03:14.072Z,0.00
2023-01-01T00:04:14.184Z,0.00
2023-01-01T00:05:14.072Z,0.00
2023-01-01T00:06:14.102Z,0.00
2023-01-01T00:07:14.065Z,0.00
2023-01-01T00:08:14.025Z,0.00
2023-01-01T00:09:14.060Z,0.00
2023-01-01T00:10:14.001Z,0.00
2023-01-01T00:11:13.984Z,0.00
2023-01-01T00:12:13.994Z,0.00
2023-01-01T00:13:13.986Z,0.00
2023-01-01T00:14:14.024Z,0.00
2023-01-01T00:15:13.954Z,0.00
2023-01-01T00:16:13.968Z,0.00
2023-01-01T00:17:13.933Z,0.00
2023-01-01T00:18:13.948Z,0.00
2023-01-01T00:19:13.970Z,0.00
2023-01-01T00:20:13.876Z,0.00
2023-01-01T00:21:13.895Z,0.00
2023-01-01T00:22:52.710Z,0.00
2023-01-01T00:23:14.857Z,0.00
2023-01-01T00:24:13.891Z,0.00
2023-01-01T00:25:13.844Z,0.00
2023-01-01T00:26:13.816Z,0.00
2023-01-01T00:27:13.849Z,0.00
2023-01-01T00:28:13.790Z,0.00
2023-01-01T00:29:13.822Z,0.00
2023-01-01T00:30:13.797Z,0.00
2023-01-01T00:31:13.800Z,0.00
2023-01-01T00:32:17.705Z,0.00
2023-01-01T00:33:14.752Z,0.00
2023-01-01T00:34:13.787Z,0.00
2023-01-01T00:35:13.751Z,0.00
2023-01-01T00:36:13.743Z,0.00
2023-01-01T00:37:13.723Z,0.00
2023-01-01T00:38:13.680Z,0.00
2023-01-01T00:39:13.698Z,0.00
2023-01-01T00:40:13.660Z,0.00
2023-01-01T00:41:13.645Z,0.00
2023-01-01T00:42:13.651Z,0.00
2023-01-01T00:43:13.618Z,0.00
2023-01-01T00:44:13.665Z,0.00
2023-01-01T00:45:20.560Z,0.00
2023-01-01T00:46:14.679Z,0.00
2023-01-01T00:47:13.598Z,0.00
2023-01-01T00:48:13.596Z,0.00
2023-01-01T00:49:13.634Z,0.00
2023-01-01T00:50:13.544Z,0.00
2023-01-01T00:51:13.545Z,0.00
2023-01-01T00:52:13.550Z,0.00
2023-01-01T00:53:13.523Z,0.00
2023-01-01T00:54:13.552Z,0.00
2023-01-01T00:55:13.517Z,0.00
2023-01-01T00:56:13.484Z,0.00
2023-01-01T00:57:13.517Z,0.00
2023-01-01T00:58:13.467Z,0.00
2023-01-01T00:59:13.484Z,0.00
2023-01-01T01:00:13.447Z,0.00
2023-01-01T01:01:13.526Z,0.00
2023-01-01T01:02:13.564Z,0.00
2023-01-01T01:03:13.469Z,0.00
2023-01-01T01:04:13.464Z,0.00
2023-01-01T01:05:13.388Z,0.00
2023-01-01T01:06:13.359Z,0.00
2023-01-01T01:07:13.346Z,0.00
2023-01-01T01:08:13.331Z,0.00
2023-01-01T01:09:13.352Z,0.00
2023-01-01T01:10:13.345Z,0.00
2023-01-01T01:11:13.343Z,0.00
2023-01-01T01:12:17.737Z,0.00
2023-01-01T01:13:14.300Z,0.00
2023-01-01T01:14:13.338Z,0.00
2023-01-01T01:15:13.273Z,0.00
2023-01-01T01:16:13.337Z,0.00
2023-01-01T01:17:13.248Z,0.00
2023-01-01T01:18:13.253Z,0.00
2023-01-01T01:19:13.262Z,0.00
2023-01-01T01:20:13.204Z,0.00
2023-01-01T01:21:13.227Z,0.00
2023-01-01T01:22:13.225Z,0.00
2023-01-01T01:23:13.199Z,0.00
2023-01-01T01:24:13.214Z,0.00
2023-01-01T01:25:13.167Z,0.00
2023-01-01T01:26:13.163Z,0.00
2023-01-01T01:27:13.153Z,0.00
2023-01-01T01:28:13.120Z,0.00
2023-01-01T01:29:13.151Z,0.00
2023-01-01T01:30:13.112Z,0.00
2023-01-01T01:31:13.117Z,0.00
2023-01-01T01:32:13.087Z,0.00
2023-01-01T01:33:13.085Z,0.00
2023-01-01T01:34:16.146Z,0.00
2023-01-01T01:35:13.050Z,0.00
2023-01-01T01:36:13.021Z,0.00
2023-01-01T01:37:13.009Z,0.00
2023-01-01T01:38:13.005Z,0.00
2023-01-01T01:39:13.017Z,0.00
2023-01-01T01:40:13.004Z,0.00
2023-01-01T01:41:26.144Z,0.00
2023-01-01T01:42:13.969Z,0.00
2023-01-01T01:43:12.931Z,0.00
2023-01-01T01:44:12.947Z,0.00
2023-01-01T01:45:12.969Z,0.00
2023-01-01T01:46:12.954Z,0.00
2023-01-01T01:47:12.897Z,0.00
2023-01-01T01:48:12.875Z,0.00
2023-01-01T01:49:12.880Z,0.00
2023-01-01T01:50:12.881Z,0.00
2023-01-01T01:51:12.860Z,0.00
2023-01-01T01:52:12.838Z,0.00
2023-01-01T01:53:12.830Z,0.00
2023-01-01T01:54:12.804Z,0.00
2023-01-01T01:55:12.846Z,0.00
2023-01-01T01:56:12.812Z,0.00
2023-01-01T01:57:12.789Z,0.00
2023-01-01T01:58:12.777Z,0.00
2023-01-01T01:59:12.762Z,0.00
2023-01-01T02:00:12.781Z,0.00
2023-01-01T02:01:12.870Z,0.00
2023-01-01T02:02:12.797Z,0.00
2023-01-01T02:03:12.786Z,0.00
2023-01-01T02:04:12.732Z,0.00
2023-01-01T02:05:12.713Z,0.00
2023-01-01T02:06:12.698Z,0.00
2023-01-01T02:07:12.668Z,0.00
2023-01-01T02:08:12.641Z,0.00
2023-01-01T02:09:12.624Z,0.00
2023-01-01T02:10:12.686Z,0.00
2023-01-01T02:11:16.096Z,0.00
2023-01-01T02:12:13.600Z,0.00
2023-01-01T02:13:12.613Z,0.00
2023-01-01T02:14:12.580Z,0.00
2023-01-01T02:15:12.608Z,0.00
2023-01-01T02:16:12.602Z,0.00
2023-01-01T02:17:12.544Z,0.00
2023-01-01T02:18:12.522Z,0.00
2023-01-01T02:19:12.519Z,0.00
2023-01-01T02:20:12.548Z,0.00
2023-01-01T02:21:12.514Z,0.00
2023-01-01T02:22:12.516Z,0.00
2023-01-01T02:23:12.503Z,0.00
2023-01-01T02:24:12.472Z,0.00
2023-01-01T02:25:12.509Z,0.00
2023-01-01T02:26:12.461Z,0.00
2023-01-01T02:27:12.437Z,0.00
2023-01-01T02:28:12.440Z,0.00
2023-01-01T02:29:12.419Z,0.00
2023-01-01T02:30:12.459Z,0.00
2023-01-01T02:31:12.441Z,0.00
2023-01-01T02:32:12.387Z,0.00
2023-01-01T02:33:12.366Z,0.00
2023-01-01T02:34:12.375Z,0.00
2023-01-01T02:35:12.384Z,0.00
2023-01-01T02:36:12.332Z,0.00
2023-01-01T02:37:12.312Z,0.00
2023-01-01T02:38:12.315Z,0.00
2023-01-01T02:39:12.275Z,0.00
2023-01-01T02:40:12.346Z,0.00
2023-01-01T02:41:12.299Z,0.00
2023-01-01T02:42:12.268Z,0.00
2023-01-01T02:43:12.248Z,0.00
2023-01-01T02:44:12.291Z,0.00
2023-01-01T02:45:12.280Z,0.00
2023-01-01T02:46:12.260Z,0.00
2023-01-01T02:47:12.232Z,0.00
2023-01-01T02:48:12.220Z,0.00
2023-01-01T02:49:12.218Z,0.00
2023-01-01T02:50:12.219Z,0.00
2023-01-01T02:51:12.213Z,0.00
2023-01-01T02:52:12.182Z,0.00
2023-01-01T02:53:12.148Z,0.00
2023-01-01T02:54:12.161Z,0.00
2023-01-01T02:55:12.189Z,0.00
2023-01-01T02:56:12.109Z,0.00
2023-01-01T02:57:12.124Z,0.00
2023-01-01T02:58:12.115Z,0.00
2023-01-01T02:59:12.085Z,0.00
2023-01-01T03:00:12.109Z,0.00
2023-01-01T03:01:12.192Z,0.00
2023-01-01T03:02:12.149Z,0.00
2023-01-01T03:03:12.155Z,0.00
2023-01-01T03:04:12.047Z,0.00
2023-01-01T03:05:12.070Z,0.00
2023-01-01T03:06:12.002Z,0.00
2023-01-01T03:07:11.984Z,0.00
2023-01-01T03:08:11.981Z,0.00
2023-01-01T03:09:11.990Z,0.00
2023-01-01T03:10:12.000Z,0.00
2023-01-01T03:11:11.972Z,0.00
2023-01-01T03:12:11.928Z,0.00
2023-01-01T03:13:11.948Z,0.00
2023-01-01T03:14:11.921Z,0.00
2023-01-01T03:15:11.924Z,0.00
2023-01-01T03:16:11.976Z,0.00
2023-01-01T03:17:11.899Z,0.00
2023-01-01T03:18:11.868Z,0.00
2023-01-01T03:19:11.884Z,0.00
2023-01-01T03:20:11.843Z,0.00
2023-01-01T03:21:45.667Z,0.00
2023-01-01T03:23:15.240Z,0.00
2023-01-01T03:24:15.230Z,0.00
2023-01-01T03:25:15.223Z,0.00
2023-01-01T03:26:15.213Z,0.00
2023-01-01T03:27:15.187Z,0.00
2023-01-01T03:28:15.192Z,0.00
2023-01-01T03:29:15.171Z,0.00
2023-01-01T03:30:15.167Z,0.00
2023-01-01T03:31:15.211Z,0.00
2023-01-01T03:32:15.128Z,0.00
2023-01-01T03:33:15.126Z,0.00
2023-01-01T03:34:15.103Z,0.00
2023-01-01T03:35:15.098Z,0.00
2023-01-01T03:36:15.134Z,0.00
2023-01-01T03:37:15.064Z,0.00
2023-01-01T03:38:15.076Z,0.00
2023-01-01T03:39:15.079Z,0.00
2023-01-01T03:40:15.052Z,0.00
2023-01-01T03:41:15.069Z,0.00
2023-01-01T03:42:15.034Z,0.00
2023-01-01T03:43:15.012Z,0.00
2023-01-01T03:44:14.996Z,0.00
2023-01-01T03:45:14.984Z,0.00
2023-01-01T03:46:15.048Z,0.00
2023-01-01T03:47:14.971Z,0.00
2023-01-01T03:48:14.969Z,0.00
2023-01-01T03:49:14.953Z,0.00
2023-01-01T03:50:14.965Z,0.00
2023-01-01T03:51:14.984Z,0.00
2023-01-01T03:52:14.926Z,0.00
2023-01-01T03:53:14.919Z,0.00
2023-01-01T03:54:14.885Z,0.00
2023-01-01T03:55:14.892Z,0.00
2023-01-01T03:56:14.902Z,0.00
2023-01-01T03:57:14.864Z,0.00
2023-01-01T03:58:14.879Z,0.00
2023-01-01T03:59:14.823Z,0.00
2023-01-01T04:00:14.849Z,0.00
2023-01-01T04:01:14.875Z,0.00
2023-01-01T04:02:14.799Z,0.00
2023-01-01T04:03:14.823Z,0.00
2023-01-01T04:04:14.777Z,0.00
2023-01-01T04:05:14.767Z,0.00
2023-01-01T04:06:14.787Z,0.00
2023-01-01T04:07:15.671Z,0.00
2023-01-01T04:08:14.735Z,0.00
2023-01-01T04:09:14.716Z,0.00
2023-01-01T04:10:14.715Z,0.00
2023-01-01T04:11:14.724Z,0.00
2023-01-01T04:12:14.692Z,0.00
2023-01-01T04:13:14.651Z,0.00
2023-01-01T04:14:14.669Z,0.00
2023-01-01T04:15:14.626Z,0.00
2023-01-01T04:16:14.747Z,0.00
2023-01-01T04:17:14.637Z,0.00
2023-01-01T04:18:14.623Z,0.00
2023-01-01T04:19:14.603Z,0.00
2023-01-01T04:20:14.594Z,0.00
2023-01-01T04:21:14.618Z,0.00
2023-01-01T04:22:14.564Z,0.00
2023-01-01T04:23:14.554Z,0.00
2023-01-01T04:24:14.549Z,0.00
2023-01-01T04:25:14.527Z,0.00
2023-01-01T04:26:14.564Z,0.00
2023-01-01T04:27:14.501Z,0.00
2023-01-01T04:28:14.483Z,0.00
2023-01-01T04:29:14.482Z,0.00
2023-01-01T04:30:14.483Z,0.00
2023-01-01T04:31:14.487Z,0.00
2023-01-01T04:32:14.447Z,0.00
2023-01-01T04:33:14.424Z,0.00
2023-01-01T04:34:14.424Z,0.00
2023-01-01T04:35:14.421Z,0.00
2023-01-01T04:36:14.455Z,0.00
2023-01-01T04:37:14.428Z,0.00
2023-01-01T04:38:14.390Z,0.00
2023-01-01T04:39:14.383Z,0.00
2023-01-01T04:40:14.355Z,0.00
2023-01-01T04:41:14.381Z,0.00
2023-01-01T04:42:14.328Z,0.00
2023-01-01T04:43:14.306Z,0.00
2023-01-01T04:44:14.310Z,0.00
2023-01-01T04:45:14.291Z,0.00
2023-01-01T04:46:14.353Z,0.00
2023-01-01T04:47:14.278Z,0.00
2023-01-01T04:48:14.267Z,0.00
2023-01-01T04:49:14.259Z,0.00
2023-01-01T04:50:14.248Z,0.00
2023-01-01T04:51:14.259Z,0.00
2023-01-01T04:52:14.220Z,0.00
2023-01-01T04:53:14.212Z,0.00
2023-01-01T04:54:14.201Z,0.00
2023-01-01T04:55:14.182Z,0.00
2023-01-01T04:56:14.191Z,0.00
2023-01-01T04:57:14.155Z,0.00
2023-01-01T04:58:14.164Z,0.00
2023-01-01T04:59:14.158Z,0.00
2023-01-01T05:00:14.107Z,0.00
2023-01-01T05:01:14.285Z,0.00
2023-01-01T05:02:14.203Z,0.00
2023-01-01T05:03:14.108Z,0.00
2023-01-01T05:04:14.071Z,0.00
2023-01-01T05:05:14.092Z,0.00
2023-01-01T05:06:14.109Z,0.00
2023-01-01T05:07:14.046Z,0.00
2023-01-01T05:08:14.044Z,0.00
2023-01-01T05:09:14.000Z,0.00
2023-01-01T05:10:14.006Z,0.00
2023-01-01T05:11:14.040Z,0.00
2023-01-01T05:12:13.999Z,0.00
2023-01-01T05:13:13.973Z,0.00
2023-01-01T05:14:13.960Z,0.00
2023-01-01T05:15:13.926Z,0.00
2023-01-01T05:16:13.993Z,0.00
2023-01-01T05:17:13.920Z,0.00
2023-01-01T05:18:13.909Z,0.00
2023-01-01T05:19:13.900Z,0.00
2023-01-01T05:20:13.902Z,0.00
2023-01-01T05:21:13.932Z,0.00
2023-01-01T05:22:13.891Z,0.00
2023-01-01T05:23:13.860Z,0.00
2023-01-01T05:24:13.872Z,0.00
2023-01-01T05:25:13.840Z,0.00
2023-01-01T05:26:13.867Z,0.00
2023-01-01T05:27:13.797Z,0.00
2023-01-01T05:28:13.796Z,0.00
2023-01-01T05:29:17.056Z,0.00
2023-01-01T05:30:13.774Z,0.00
2023-01-01T05:31:13.830Z,0.00
2023-01-01T05:32:43.397Z,0.00
2023-01-01T05:33:43.376Z,0.00
2023-01-01T05:34:43.372Z,0.00
2023-01-01T05:35:43.348Z,0.00
2023-01-01T05:36:43.403Z,0.00
2023-01-01T05:37:43.319Z,0.00
2023-01-01T05:38:43.307Z,0.00
2023-01-01T05:39:43.320Z,0.00
2023-01-01T05:40:43.291Z,0.00
2023-01-01T05:41:43.337Z,0.00
2023-01-01T05:42:43.271Z,0.00
2023-01-01T05:43:43.263Z,0.00
2023-01-01T05:44:43.241Z,0.00
2023-01-01T05:45:43.247Z,0.00
2023-01-01T05:46:43.251Z,0.00
2023-01-01T05:47:43.216Z,0.00
2023-01-01T05:48:43.230Z,0.00
2023-01-01T05:49:43.188Z,0.00
2023-01-01T05:50:43.196Z,0.00
2023-01-01T05:52:12.754Z,0.00
2023-01-01T05:53:12.762Z,0.00
2023-01-01T05:54:42.311Z,0.00
2023-01-01T05:55:42.307Z,0.00
2023-01-01T05:56:42.336Z,0.00
2023-01-01T05:57:42.276Z,0.00
2023-01-01T05:58:42.252Z,0.00
2023-01-01T05:59:42.243Z,0.00
2023-01-01T06:00:42.251Z,0.00
2023-01-01T06:01:45.884Z,0.00
2023-01-01T06:02:42.284Z,0.00
2023-01-01T06:03:42.204Z,0.00
2023-01-01T06:04:42.235Z,0.00
2023-01-01T06:05:42.186Z,0.00
2023-01-01T06:06:42.221Z,0.00
2023-01-01T06:07:48.210Z,0.00
2023-01-01T06:08:43.144Z,0.00
2023-01-01T06:09:42.133Z,0.00
2023-01-01T06:10:42.136Z,0.00
2023-01-01T06:11:42.125Z,0.00
2023-01-01T06:12:42.094Z,0.00
2023-01-01T06:13:42.058Z,0.00
2023-01-01T06:14:42.066Z,0.00
2023-01-01T06:15:42.056Z,0.00
2023-01-01T06:16:42.144Z,0.00
2023-01-01T06:17:42.066Z,0.00
2023-01-01T06:18:42.048Z,0.00
2023-01-01T06:19:42.018Z,0.00
2023-01-01T06:20:41.989Z,0.00
2023-01-01T06:21:42.011Z,0.00
2023-01-01T06:22:41.973Z,0.00
2023-01-01T06:23:41.984Z,0.00
2023-01-01T06:24:41.933Z,0.00
2023-01-01T06:25:41.957Z,0.00
2023-01-01T06:26:41.979Z,0.00
2023-01-01T06:27:41.905Z,0.00
2023-01-01T06:28:41.930Z,0.00
2023-01-01T06:29:41.897Z,0.00
2023-01-01T06:30:41.975Z,0.00
2023-01-01T06:31:41.941Z,0.00
2023-01-01T06:32:41.885Z,0.00
2023-01-01T06:33:41.859Z,0.00
2023-01-01T06:34:41.870Z,0.00
2023-01-01T06:35:41.837Z,0.00
2023-01-01T06:36:41.809Z,0.00
2023-01-01T06:37:41.845Z,0.00
2023-01-01T06:38:41.812Z,0.00
2023-01-01T06:39:41.798Z,0.00
2023-01-01T06:40:41.785Z,0.00
2023-01-01T06:41:41.769Z,0.00
2023-01-01T06:42:41.763Z,0.00
2023-01-01T06:43:41.764Z,0.00
2023-01-01T06:44:41.729Z,0.00
2023-01-01T06:45:41.711Z,0.00
2023-01-01T06:46:41.747Z,0.00
2023-01-01T06:47:41.743Z,0.00
2023-01-01T06:48:41.702Z,0.00
2023-01-01T06:49:41.675Z,0.00
2023-01-01T06:50:41.699Z,0.00
2023-01-01T06:51:41.695Z,0.00
2023-01-01T06:52:41.686Z,0.00
2023-01-01T06:53:41.644Z,0.00
2023-01-01T06:54:41.615Z,0.00
2023-01-01T06:55:41.612Z,0.00
2023-01-01T06:56:41.602Z,0.00
2023-01-01T06:57:41.616Z,0.00
2023-01-01T06:58:41.609Z,0.00
2023-01-01T06:59:41.570Z,5.62
2023-01-01T07:00:41.566Z,5.62
2023-01-01T07:01:44.609Z,5.62
2023-01-01T07:02:41.725Z,5.62
2023-01-01T07:03:41.598Z,5.62
2023-01-01T07:04:41.510Z,5.62
2023-01-01T07:05:41.505Z,5.62
2023-01-01T07:06:41.489Z,11.25
2023-01-01T07:07:41.517Z,11.25
2023-01-01T07:08:41.467Z,11.25
2023-01-01T07:09:41.452Z,11.25
2023-01-01T07:10:41.423Z,11.25
2023-01-01T07:11:41.459Z,11.25
2023-01-01T07:12:41.449Z,16.88
2023-01-01T07:13:41.397Z,16.88
2023-01-01T07:14:41.393Z,22.50
2023-01-01T07:15:41.412Z,28.12
2023-01-01T07:16:41.464Z,28.12
2023-01-01T07:17:41.406Z,33.75
2023-01-01T07:18:41.370Z,33.75
2023-01-01T07:19:41.338Z,39.38
2023-01-01T07:20:41.319Z,39.38
2023-01-01T07:21:41.312Z,45.00
2023-01-01T07:22:41.352Z,50.62
2023-01-01T07:23:41.316Z,50.62
2023-01-01T07:24:41.275Z,56.25
2023-01-01T07:25:41.279Z,56.25
2023-01-01T07:26:41.277Z,61.88
2023-01-01T07:27:41.281Z,67.50
2023-01-01T07:28:41.236Z,67.50
2023-01-01T07:29:41.209Z,73.12
2023-01-01T07:30:41.326Z,78.75
2023-01-01T07:31:41.317Z,78.75
2023-01-01T07:32:41.213Z,84.38
2023-01-01T07:33:41.173Z,90.00
2023-01-01T07:34:43.871Z,95.62
2023-01-01T07:35:42.156Z,95.62
2023-01-01T07:36:41.138Z,101.25
2023-01-01T07:37:41.151Z,101.25
2023-01-01T07:38:41.111Z,101.25
2023-01-01T07:39:41.100Z,101.25
2023-01-01T07:40:41.061Z,101.25
2023-01-01T07:41:41.061Z,106.88
2023-01-01T07:42:41.109Z,106.88
2023-01-01T07:43:41.041Z,106.88
2023-01-01T07:44:41.047Z,112.50
2023-01-01T07:45:41.044Z,118.12
2023-01-01T07:46:41.046Z,118.12
2023-01-01T07:47:41.052Z,123.75
2023-01-01T07:48:41.005Z,123.75
2023-01-01T07:49:41.013Z,129.38
2023-01-01T07:50:40.975Z,129.38
2023-01-01T07:51:40.966Z,135.00
2023-01-01T07:52:40.983Z,135.00
2023-01-01T07:53:40.963Z,135.00
2023-01-01T07:54:40.933Z,135.00
2023-01-01T07:55:40.903Z,135.00
2023-01-01T07:56:40.922Z,135.00
2023-01-01T07:57:40.954Z,140.62
2023-01-01T07:58:40.904Z,140.62
2023-01-01T07:59:40.872Z,146.25
2023-01-01T08:00:40.878Z,151.88
2023-01-01T08:01:40.914Z,157.50
2023-01-01T08:02:40.928Z,163.12
2023-01-01T08:03:40.896Z,163.12
2023-01-01T08:04:40.816Z,168.75
2023-01-01T08:05:40.811Z,174.38
2023-01-01T08:06:40.787Z,174.38
2023-01-01T08:07:40.799Z,180.00
2023-01-01T08:08:40.808Z,180.00
2023-01-01T08:09:40.782Z,185.62
2023-01-01T08:10:40.747Z,185.62
2023-01-01T08:11:40.725Z,185.62
2023-01-01T08:12:40.711Z,191.25
2023-01-01T08:13:40.776Z,191.25
2023-01-01T08:14:40.693Z,191.25
2023-01-01T08:15:40.749Z,191.25
2023-01-01T08:16:40.695Z,196.88
2023-01-01T08:17:46.151Z,196.88
2023-01-01T08:18:41.705Z,202.50
2023-01-01T08:19:40.649Z,202.50
2023-01-01T08:20:40.656Z,208.12
2023-01-01T08:21:40.622Z,213.75
2023-01-01T08:22:40.631Z,219.38
2023-01-01T08:23:40.674Z,225.00
2023-01-01T08:24:40.593Z,225.00
2023-01-01T08:25:40.615Z,230.62
2023-01-01T08:26:40.591Z,236.25
2023-01-01T08:27:40.561Z,236.25
2023-01-01T08:28:40.600Z,236.25
2023-01-01T08:29:40.588Z,241.88
2023-01-01T08:30:40.528Z,236.25
2023-01-01T08:31:40.566Z,241.88
2023-01-01T08:32:40.513Z,241.88
2023-01-01T08:33:40.550Z,241.88
2023-01-01T08:34:40.488Z,241.88
2023-01-01T08:35:40.482Z,247.50
2023-01-01T08:36:40.473Z,247.50
2023-01-01T08:37:40.441Z,247.50
2023-01-01T08:38:40.472Z,247.50
2023-01-01T08:39:40.455Z,253.12
2023-01-01T08:40:40.402Z,258.75
2023-01-01T08:41:40.411Z,264.38
2023-01-01T08:42:40.395Z,270.00
2023-01-01T08:43:40.416Z,281.25
2023-01-01T08:44:40.361Z,286.88
2023-01-01T08:45:40.367Z,298.12
2023-01-01T08:46:40.408Z,303.75
2023-01-01T08:47:40.329Z,309.38
2023-01-01T08:48:40.357Z,315.00
2023-01-01T08:49:40.312Z,315.00
2023-01-01T08:50:40.315Z,315.00
2023-01-01T08:51:40.299Z,315.00
2023-01-01T08:52:40.313Z,320.62
2023-01-01T08:53:43.029Z,326.25
2023-01-01T08:54:41.252Z,326.25
2023-01-01T08:55:40.283Z,331.88
2023-01-01T08:56:40.239Z,337.50
2023-01-01T08:57:40.211Z,337.50
2023-01-01T08:58:40.272Z,337.50
2023-01-01T08:59:40.200Z,343.12
2023-01-01T09:00:40.199Z,348.75
2023-01-01T09:01:40.414Z,348.75
2023-01-01T09:02:40.282Z,354.38
2023-01-01T09:03:40.260Z,360.00
2023-01-01T09:04:40.138Z,371.25
2023-01-01T09:05:40.149Z,382.50
2023-01-01T09:06:40.123Z,393.75
2023-01-01T09:07:40.128Z,399.38
2023-01-01T09:08:40.144Z,405.00
2023-01-01T09:09:40.116Z,410.62
2023-01-01T09:10:40.075Z,416.25
2023-01-01T09:11:40.056Z,416.25
2023-01-01T09:12:40.046Z,421.88
2023-01-01T09:13:40.071Z,421.88
2023-01-01T09:14:40.011Z,427.50
2023-01-01T09:15:40.044Z,427.50
2023-01-01T09:16:44.023Z,427.50
2023-01-01T09:17:40.029Z,427.50
2023-01-01T09:18:40.024Z,421.88
2023-01-01T09:19:39.999Z,421.88
2023-01-01T09:20:39.950Z,421.88
2023-01-01T09:21:39.973Z,416.25
2023-01-01T09:22:39.937Z,416.25
2023-01-01T09:23:39.982Z,416.25
2023-01-01T09:24:39.934Z,416.25
2023-01-01T09:25:39.932Z,405.00
2023-01-01T09:26:39.909Z,399.38
2023-01-01T09:27:39.889Z,399.38
2023-01-01T09:28:39.915Z,399.38
2023-01-01T09:29:39.868Z,399.38
2023-01-01T09:30:39.868Z,405.00
2023-01-01T09:31:39.900Z,410.62
2023-01-01T09:32:39.846Z,421.88
2023-01-01T09:33:39.880Z,433.12
2023-01-01T09:34:39.797Z,438.75
2023-01-01T09:35:39.800Z,444.38
2023-01-01T09:36:39.788Z,438.75
2023-01-01T09:37:39.785Z,427.50
2023-01-01T09:38:39.795Z,421.88
2023-01-01T09:39:39.768Z,410.62
2023-01-01T09:40:39.744Z,388.12
2023-01-01T09:41:39.725Z,360.00
2023-01-01T09:42:39.730Z,337.50
2023-01-01T09:43:39.687Z,320.62
2023-01-01T09:44:39.730Z,309.38
2023-01-01T09:45:39.756Z,315.00
2023-01-01T09:46:39.670Z,326.25
2023-01-01T09:47:39.686Z,326.25
2023-01-01T09:48:39.667Z,326.25
2023-01-01T09:49:39.695Z,331.88
2023-01-01T09:50:39.648Z,348.75
2023-01-01T09:51:47.610Z,360.00
2023-01-01T09:52:40.610Z,365.62
2023-01-01T09:53:39.598Z,371.25
2023-01-01T09:54:39.633Z,376.88
2023-01-01T09:55:39.590Z,382.50
2023-01-01T09:56:39.577Z,393.75
2023-01-01T09:57:39.573Z,405.00
2023-01-01T09:58:39.550Z,416.25
2023-01-01T09:59:39.592Z,427.50
2023-01-01T10:00:39.558Z,444.38
2023-01-01T10:01:39.733Z,461.25
2023-01-01T10:02:39.523Z,472.50
2023-01-01T10:03:39.548Z,483.75
2023-01-01T10:04:39.500Z,500.62
2023-01-01T10:05:39.473Z,511.88
2023-01-01T10:06:39.468Z,528.75
2023-01-01T10:07:39.434Z,540.00
2023-01-01T10:08:39.443Z,545.62
2023-01-01T10:09:39.434Z,551.25
2023-01-01T10:10:39.397Z,556.88
2023-01-01T10:11:39.392Z,556.88
2023-01-01T10:12:39.365Z,556.88
2023-01-01T10:13:39.365Z,556.88
2023-01-01T10:14:39.420Z,551.25
2023-01-01T10:15:39.337Z,545.62
2023-01-01T10:16:39.382Z,540.00
2023-01-01T10:17:39.361Z,540.00
2023-01-01T10:18:39.328Z,540.00
2023-01-01T10:19:39.391Z,540.00
2023-01-01T10:20:39.290Z,545.62
2023-01-01T10:21:44.986Z,556.88
2023-01-01T10:22:40.260Z,568.12
2023-01-01T10:23:39.258Z,573.75
2023-01-01T10:24:39.292Z,579.38
2023-01-01T10:25:39.232Z,596.25
2023-01-01T10:26:39.219Z,596.25
2023-01-01T10:27:39.228Z,607.50
2023-01-01T10:28:39.199Z,601.88
2023-01-01T10:29:39.249Z,596.25
2023-01-01T10:30:39.181Z,596.25
2023-01-01T10:31:39.211Z,596.25
2023-01-01T10:32:39.177Z,601.88
2023-01-01T10:33:39.140Z,607.50
2023-01-01T10:34:39.192Z,607.50
2023-01-01T10:35:39.130Z,613.12
2023-01-01T10:36:39.086Z,601.88
2023-01-01T10:37:39.096Z,585.00
2023-01-01T10:38:39.091Z,585.00
2023-01-01T10:39:39.093Z,579.38
2023-01-01T10:40:39.051Z,601.88
2023-01-01T10:41:39.060Z,585.00
2023-01-01T10:42:39.046Z,618.75
2023-01-01T10:43:39.011Z,590.62
2023-01-01T10:44:39.038Z,601.88
2023-01-01T10:45:39.072Z,562.50
2023-01-01T10:46:39.020Z,568.12
2023-01-01T10:47:39.022Z,562.50
2023-01-01T10:48:38.998Z,551.25
2023-01-01T10:49:39.036Z,528.75
2023-01-01T10:50:38.942Z,528.75
2023-01-01T10:51:38.937Z,551.25
2023-01-01T10:52:38.917Z,573.75
2023-01-01T10:53:38.936Z,556.88
2023-01-01T10:54:38.913Z,540.00
2023-01-01T10:55:38.946Z,568.12
2023-01-01T10:56:38.885Z,556.88
2023-01-01T10:57:38.888Z,551.25
2023-01-01T10:58:38.849Z,545.62
2023-01-01T10:59:38.894Z,540.00
2023-01-01T11:00:38.860Z,534.38
2023-01-01T11:01:38.885Z,528.75
2023-01-01T11:02:38.888Z,517.50
2023-01-01T11:03:38.810Z,528.75
2023-01-01T11:04:38.783Z,540.00
2023-01-01T11:05:38.808Z,523.12
2023-01-01T11:06:38.779Z,517.50
2023-01-01T11:07:38.777Z,523.12
2023-01-01T11:08:38.760Z,528.75
2023-01-01T11:09:38.730Z,534.38
2023-01-01T11:10:38.734Z,540.00
2023-01-01T11:11:38.703Z,545.62
2023-01-01T11:13:39.680Z,596.25
2023-01-01T11:14:38.663Z,613.12
2023-01-01T11:15:38.692Z,635.62
2023-01-01T11:16:38.705Z,686.25
2023-01-01T11:17:38.631Z,714.38
2023-01-01T11:18:38.622Z,759.38
2023-01-01T11:19:38.616Z,765.00
2023-01-01T11:20:38.650Z,725.62
2023-01-01T11:21:38.599Z,798.75
2023-01-01T11:22:38.579Z,843.75
2023-01-01T11:23:38.567Z,804.38
2023-01-01T11:24:38.550Z,838.12
2023-01-01T11:25:38.587Z,843.75
2023-01-01T11:26:38.541Z,826.88
2023-01-01T11:27:38.531Z,781.88
2023-01-01T11:28:38.522Z,798.75
2023-01-01T11:29:38.514Z,725.62
2023-01-01T11:30:38.549Z,691.88
2023-01-01T11:31:38.493Z,708.75
2023-01-01T11:32:38.461Z,720.00
2023-01-01T11:33:38.466Z,663.75
2023-01-01T11:34:38.465Z,646.88
2023-01-01T11:35:38.476Z,714.38
2023-01-01T11:36:38.484Z,697.50
2023-01-01T11:37:38.408Z,697.50
2023-01-01T11:38:38.423Z,731.25
2023-01-01T11:39:38.395Z,776.25
2023-01-01T11:40:38.439Z,804.38
2023-01-01T11:41:38.355Z,765.00
2023-01-01T11:42:38.346Z,776.25
2023-01-01T11:43:38.328Z,815.62
2023-01-01T11:44:38.341Z,776.25
2023-01-01T11:45:38.347Z,810.00
2023-01-01T11:46:38.412Z,815.62
2023-01-01T11:47:38.329Z,804.38
2023-01-01T11:48:38.300Z,703.12
2023-01-01T11:49:38.264Z,742.50
2023-01-01T11:50:38.312Z,742.50
2023-01-01T11:51:38.262Z,742.50
2023-01-01T11:52:38.242Z,810.00
2023-01-01T11:53:38.225Z,860.62
2023-01-01T11:54:38.219Z,900.00
2023-01-01T11:55:38.256Z,928.12
2023-01-01T11:56:38.219Z,826.88
2023-01-01T11:57:38.188Z,714.38
2023-01-01T11:58:38.161Z,770.62
2023-01-01T11:59:38.169Z,804.38
2023-01-01T12:00:38.195Z,793.12
2023-01-01T12:01:38.192Z,765.00
2023-01-01T12:02:38.186Z,708.75
2023-01-01T12:03:38.157Z,725.62
2023-01-01T12:04:38.113Z,669.38
2023-01-01T12:05:38.135Z,596.25
2023-01-01T12:06:38.113Z,528.75
2023-01-01T12:07:38.086Z,438.75
2023-01-01T12:08:38.063Z,427.50
2023-01-01T12:09:38.045Z,450.00
2023-01-01T12:10:38.113Z,416.25
2023-01-01T12:11:38.011Z,399.38
2023-01-01T12:12:37.993Z,399.38
2023-01-01T12:13:37.997Z,399.38
2023-01-01T12:14:37.994Z,399.38
2023-01-01T12:15:38.055Z,405.00
2023-01-01T12:16:37.976Z,410.62
2023-01-01T12:17:37.979Z,410.62
2023-01-01T12:18:37.959Z,410.62
2023-01-01T12:19:37.948Z,399.38
2023-01-01T12:20:37.987Z,365.62
2023-01-01T12:21:37.902Z,337.50
2023-01-01T12:22:37.901Z,309.38
2023-01-01T12:23:37.884Z,286.88
2023-01-01T12:24:37.862Z,275.62
2023-01-01T12:25:37.901Z,275.62
2023-01-01T12:26:37.875Z,286.88
2023-01-01T12:27:37.837Z,303.75
2023-01-01T12:28:37.840Z,320.62
2023-01-01T12:29:37.819Z,343.12
2023-01-01T12:30:37.855Z,360.00
2023-01-01T12:31:37.866Z,376.88
2023-01-01T12:32:37.794Z,399.38
2023-01-01T12:33:37.792Z,416.25
2023-01-01T12:34:37.764Z,427.50
2023-01-01T12:35:37.773Z,438.75
2023-01-01T12:36:37.769Z,450.00
2023-01-01T12:37:37.720Z,466.88
2023-01-01T12:38:37.737Z,483.75
2023-01-01T12:39:37.712Z,455.62
2023-01-01T12:40:37.741Z,455.62
2023-01-01T12:41:37.697Z,455.62
2023-01-01T12:42:37.658Z,461.25
2023-01-01T12:43:37.658Z,455.62
2023-01-01T12:44:37.646Z,455.62
2023-01-01T12:45:37.656Z,461.25
2023-01-01T12:46:37.629Z,466.88
2023-01-01T12:47:37.630Z,466.88
2023-01-01T12:48:37.605Z,478.12
2023-01-01T12:49:37.617Z,455.62
2023-01-01T12:50:37.638Z,450.00
2023-01-01T12:51:37.559Z,444.38
2023-01-01T12:52:37.591Z,444.38
2023-01-01T12:53:37.549Z,444.38
2023-01-01T12:54:37.538Z,438.75
2023-01-01T12:55:37.579Z,444.38
2023-01-01T12:56:37.562Z,450.00
2023-01-01T12:57:37.521Z,444.38
2023-01-01T12:58:37.492Z,427.50